createdAt,value
2024-04-06T00:00:09.959Z,14.87
2024-04-06T00:03:26.488Z,14.87
2024-04-06T00:05:56.062Z,14.88
2024-04-06T00:08:27.634Z,14.88
2024-04-06T00:10:56.509Z,14.86
2024-04-06T00:13:29.705Z,14.85
2024-04-06T00:15:58.886Z,14.83
2024-04-06T00:18:28.922Z,14.81
2024-04-06T00:20:58.208Z,14.78
2024-04-06T00:23:28.961Z,14.74
2024-04-06T00:25:58.457Z,14.71
2024-04-06T00:28:28.562Z,14.68
2024-04-06T00:30:58.104Z,14.65
2024-04-06T00:33:28.093Z,14.63
2024-04-06T00:35:56.986Z,14.59
2024-04-06T00:38:27.241Z,14.56
2024-04-06T00:40:56.090Z,14.53
2024-04-06T00:43:28.292Z,14.51
2024-04-06T00:45:57.758Z,14.47
2024-04-06T00:48:28.697Z,14.43
2024-04-06T00:50:58.535Z,14.41
2024-04-06T00:53:28.799Z,14.38
2024-04-06T00:55:58.666Z,14.36
2024-04-06T00:58:29.488Z,14.35
2024-04-06T01:00:58.394Z,14.38
2024-04-06T01:03:29.129Z,14.41
2024-04-06T01:05:58.421Z,14.46
2024-04-06T01:08:28.804Z,14.53
2024-04-06T01:10:57.827Z,14.62
2024-04-06T01:13:28.161Z,14.70
2024-04-06T01:15:58.065Z,14.80
2024-04-06T01:18:28.700Z,14.89
2024-04-06T01:20:58.116Z,14.99
2024-04-06T01:23:28.675Z,15.09
2024-04-06T01:25:58.945Z,15.21
2024-04-06T01:28:29.580Z,15.30
2024-04-06T01:30:58.552Z,15.36
2024-04-06T01:33:28.903Z,15.38
2024-04-06T01:35:57.944Z,15.37
2024-04-06T01:38:28.042Z,15.34
2024-04-06T01:40:57.109Z,15.31
2024-04-06T01:43:27.646Z,15.28
2024-04-06T01:45:56.735Z,15.24
2024-04-06T01:48:26.849Z,15.20
2024-04-06T01:50:55.633Z,15.15
2024-04-06T01:53:26.079Z,15.11
2024-04-06T01:55:55.053Z,15.08
2024-04-06T01:58:25.489Z,15.03
2024-04-06T02:00:54.273Z,14.99
2024-04-06T02:03:24.487Z,14.94
2024-04-06T02:05:53.394Z,14.89
2024-04-06T02:08:24.652Z,14.85
2024-04-06T02:10:53.202Z,14.80
2024-04-06T02:13:23.527Z,14.75
2024-04-06T02:15:52.522Z,14.72
2024-04-06T02:18:22.953Z,14.69
2024-04-06T02:20:52.053Z,14.66
2024-04-06T02:23:23.343Z,14.64
2024-04-06T02:25:53.211Z,14.62
2024-04-06T02:28:23.639Z,14.60
2024-04-06T02:30:54.268Z,14.58
2024-04-06T02:33:24.888Z,14.55
2024-04-06T02:35:53.899Z,14.51
2024-04-06T02:38:24.350Z,14.48
2024-04-06T02:40:53.822Z,14.44
2024-04-06T02:43:24.362Z,14.40
2024-04-06T02:45:53.855Z,14.37
2024-04-06T02:48:25.095Z,14.33
2024-04-06T02:50:54.634Z,14.30
2024-04-06T02:53:25.024Z,14.26
2024-04-06T02:55:54.429Z,14.22
2024-04-06T02:58:25.053Z,14.19
2024-04-06T03:00:53.940Z,14.17
2024-04-06T03:03:24.157Z,14.16
2024-04-06T03:05:53.052Z,14.16
2024-04-06T03:08:23.373Z,14.17
2024-04-06T03:10:52.168Z,14.19
2024-04-06T03:13:22.286Z,14.21
2024-04-06T03:15:50.962Z,14.24
2024-04-06T03:18:21.386Z,14.24
2024-04-06T03:20:50.291Z,14.27
2024-04-06T03:23:20.500Z,14.27
2024-04-06T03:25:49.396Z,14.26
2024-04-06T03:28:19.935Z,14.23
2024-04-06T03:30:48.712Z,14.20
2024-04-06T03:33:18.738Z,14.17
2024-04-06T03:35:47.413Z,14.11
2024-04-06T03:38:17.226Z,14.06
2024-04-06T03:40:46.015Z,14.02
2024-04-06T03:43:16.140Z,13.97
2024-04-06T03:45:46.736Z,13.92
2024-04-06T03:48:16.479Z,13.86
2024-04-06T03:50:45.770Z,13.79
2024-04-06T03:53:17.835Z,13.74
2024-04-06T03:55:46.548Z,13.68
2024-04-06T03:58:16.634Z,13.59
2024-04-06T04:00:45.326Z,13.52
2024-04-06T04:03:15.552Z,13.44
2024-04-06T04:05:44.438Z,13.37
2024-04-06T04:08:15.277Z,13.31
2024-04-06T04:10:43.951Z,13.26
2024-04-06T04:13:14.288Z,13.22
2024-04-06T04:15:43.076Z,13.17
2024-04-06T04:18:13.302Z,13.15
2024-04-06T04:20:42.488Z,13.13
2024-04-06T04:23:12.714Z,13.11
2024-04-06T04:25:41.595Z,13.09
2024-04-06T04:28:11.625Z,13.07
2024-04-06T04:30:40.609Z,13.05
2024-04-06T04:33:09.704Z,13.02
2024-04-06T04:35:38.630Z,13.00
2024-04-06T04:38:09.127Z,12.97
2024-04-06T04:40:37.917Z,12.94
2024-04-06T04:43:08.155Z,12.90
2024-04-06T04:45:36.827Z,12.87
2024-04-06T04:48:07.156Z,12.83
2024-04-06T04:50:35.842Z,12.80
2024-04-06T04:53:05.954Z,12.77
2024-04-06T04:55:34.547Z,12.78
2024-04-06T04:58:05.063Z,12.81
2024-04-06T05:00:33.577Z,12.86
2024-04-06T05:03:04.068Z,12.92
2024-04-06T05:05:34.310Z,13.00
2024-04-06T05:08:05.128Z,13.10
2024-04-06T05:10:33.721Z,13.19
2024-04-06T05:13:04.148Z,13.29
2024-04-06T05:15:32.921Z,13.39
2024-04-06T05:18:03.145Z,13.51
2024-04-06T05:20:31.978Z,13.63
2024-04-06T05:23:02.139Z,13.77
2024-04-06T05:25:31.000Z,13.92
2024-04-06T05:28:01.178Z,14.07
2024-04-06T05:30:29.953Z,14.28
2024-04-06T05:33:00.066Z,14.52
2024-04-06T05:35:28.852Z,14.79
2024-04-06T05:37:59.092Z,15.06
2024-04-06T05:40:27.765Z,15.32
2024-04-06T05:42:58.191Z,15.58
2024-04-06T05:45:26.978Z,15.87
2024-04-06T05:48:02.430Z,16.29
2024-04-06T05:50:38.834Z,16.87
2024-04-06T05:53:08.807Z,17.81
2024-04-06T05:55:38.311Z,18.89
2024-04-06T05:58:08.216Z,19.91
2024-04-06T06:00:37.108Z,20.88
2024-04-06T06:03:07.344Z,21.80
2024-04-06T06:05:36.221Z,22.63
2024-04-06T06:08:06.554Z,23.31
2024-04-06T06:10:36.188Z,23.93
2024-04-06T06:13:06.268Z,24.44
2024-04-06T06:15:35.274Z,24.75
2024-04-06T06:18:05.280Z,25.08
2024-04-06T06:20:34.351Z,25.66
2024-04-06T06:23:04.501Z,26.30
2024-04-06T06:25:33.797Z,27.06
2024-04-06T06:28:04.011Z,27.63
2024-04-06T06:30:33.514Z,28.07
2024-04-06T06:33:03.983Z,28.44
2024-04-06T06:35:32.944Z,28.96
2024-04-06T06:38:02.973Z,29.73
2024-04-06T06:43:04.731Z,31.32
2024-04-06T06:45:33.852Z,31.98
2024-04-06T06:48:03.877Z,32.09
2024-04-06T06:50:33.063Z,32.07
2024-04-06T06:53:03.273Z,32.43
2024-04-06T06:55:33.161Z,33.00
2024-04-06T06:58:03.192Z,33.41
2024-04-06T07:00:32.491Z,33.43
2024-04-06T07:03:02.727Z,33.52
2024-04-06T07:05:31.496Z,33.96
2024-04-06T07:08:02.038Z,34.41
2024-04-06T07:10:31.026Z,33.96
2024-04-06T07:13:01.355Z,33.02
2024-04-06T07:15:30.039Z,32.30
2024-04-06T07:18:00.053Z,31.59
2024-04-06T07:20:28.842Z,30.66
2024-04-06T07:22:59.132Z,29.81
2024-04-06T07:25:28.256Z,29.06
2024-04-06T07:27:58.364Z,28.82
2024-04-06T07:30:27.262Z,29.01
2024-04-06T07:32:57.670Z,29.97
2024-04-06T07:35:26.697Z,31.34
2024-04-06T07:37:57.107Z,32.46
2024-04-06T07:40:26.000Z,33.26
2024-04-06T07:42:56.533Z,32.90
2024-04-06T07:45:25.309Z,31.74
2024-04-06T07:47:55.330Z,30.53
2024-04-06T07:50:24.532Z,29.47
2024-04-06T07:52:56.695Z,28.45
2024-04-06T07:55:25.793Z,27.71
2024-04-06T07:57:56.020Z,27.25
2024-04-06T08:00:24.600Z,26.93
2024-04-06T08:02:55.021Z,26.89
2024-04-06T08:05:23.600Z,27.22
2024-04-06T08:07:53.928Z,27.92
2024-04-06T08:10:22.829Z,28.87
2024-04-06T08:12:56.517Z,30.01
2024-04-06T08:15:26.568Z,30.87
2024-04-06T08:17:57.571Z,31.40
2024-04-06T08:20:26.264Z,31.36
2024-04-06T08:22:56.389Z,30.82
2024-04-06T08:25:25.077Z,30.16
2024-04-06T08:27:55.301Z,29.61
2024-04-06T08:30:24.183Z,29.16
2024-04-06T08:33:01.047Z,28.81
2024-04-06T08:35:34.871Z,28.47
2024-04-06T08:38:06.916Z,28.14
2024-04-06T08:40:43.229Z,27.99
2024-04-06T08:43:14.005Z,27.90
2024-04-06T08:45:43.321Z,27.87
2024-04-06T08:48:13.648Z,27.73
2024-04-06T08:50:42.539Z,27.64
2024-04-06T08:53:12.550Z,27.47
2024-04-06T08:55:41.236Z,27.19
2024-04-06T08:58:11.397Z,27.07
2024-04-06T09:00:40.243Z,26.95
2024-04-06T09:03:10.367Z,26.77
2024-04-06T09:05:45.095Z,26.53
2024-04-06T09:08:16.237Z,26.41
2024-04-06T09:10:47.103Z,26.43
2024-04-06T09:13:17.655Z,26.61
2024-04-06T09:15:46.392Z,26.67
2024-04-06T09:18:16.709Z,26.57
2024-04-06T09:20:51.744Z,26.44
2024-04-06T09:23:21.765Z,26.30
2024-04-06T09:25:58.843Z,26.11
2024-04-06T09:28:28.932Z,25.95
2024-04-06T09:30:58.669Z,25.81
2024-04-06T09:33:28.795Z,25.63
2024-04-06T09:35:57.780Z,25.35
2024-04-06T09:38:28.224Z,25.14
2024-04-06T09:40:57.302Z,25.04
2024-04-06T09:43:27.733Z,24.93
2024-04-06T09:45:56.632Z,24.86
2024-04-06T09:48:26.743Z,24.92
2024-04-06T09:50:55.330Z,25.03
2024-04-06T09:53:25.745Z,25.19
2024-04-06T09:55:54.961Z,25.22
2024-04-06T09:58:28.882Z,25.19
2024-04-06T10:00:57.742Z,25.26
2024-04-06T10:03:34.832Z,25.31
2024-04-06T10:06:09.147Z,25.16
2024-04-06T10:08:47.556Z,25.14
2024-04-06T10:11:21.264Z,25.15
2024-04-06T10:13:54.359Z,24.97
2024-04-06T10:16:27.753Z,24.76
2024-04-06T10:18:56.841Z,24.51
2024-04-06T10:21:36.895Z,24.50
2024-04-06T10:24:10.084Z,24.60
2024-04-06T10:26:48.103Z,24.76
2024-04-06T10:29:18.165Z,24.87
2024-04-06T10:31:47.833Z,24.78
2024-04-06T10:34:18.108Z,24.58
2024-04-06T10:36:47.544Z,24.34
2024-04-06T10:39:18.488Z,24.09
2024-04-06T10:41:47.580Z,23.86
2024-04-06T10:44:17.898Z,23.70
2024-04-06T10:46:47.194Z,23.54
2024-04-06T10:49:17.649Z,23.42
2024-04-06T10:51:46.625Z,23.35
2024-04-06T10:54:16.738Z,23.26
2024-04-06T10:56:45.730Z,23.17
2024-04-06T10:59:15.541Z,23.09
2024-04-06T11:01:44.534Z,23.05
2024-04-06T11:04:14.675Z,23.01
2024-04-06T11:06:44.783Z,22.95
2024-04-06T11:09:14.696Z,22.87
2024-04-06T11:11:43.691Z,22.76
2024-04-06T11:14:13.487Z,22.67
2024-04-06T11:16:44.018Z,22.54
2024-04-06T11:19:15.412Z,22.42
2024-04-06T11:21:44.567Z,22.28
2024-04-06T11:24:14.480Z,22.16
2024-04-06T11:26:43.373Z,22.04
2024-04-06T11:29:14.304Z,21.91
2024-04-06T11:31:42.989Z,21.78
2024-04-06T11:34:13.233Z,21.65
2024-04-06T11:36:41.897Z,21.49
2024-04-06T11:39:12.119Z,21.32
2024-04-06T11:41:41.213Z,21.20
2024-04-06T11:44:11.861Z,21.11
2024-04-06T11:46:41.073Z,21.08
2024-04-06T11:49:11.410Z,21.07
2024-04-06T11:51:40.669Z,21.02
2024-04-06T11:54:10.680Z,21.00
2024-04-06T11:56:39.685Z,21.00
2024-04-06T11:59:10.000Z,20.97
2024-04-06T12:01:38.988Z,20.94
2024-04-06T12:04:09.202Z,20.91
2024-04-06T12:06:37.997Z,20.89
2024-04-06T12:09:08.945Z,20.91
2024-04-06T12:11:37.831Z,20.96
2024-04-06T12:14:08.865Z,21.06
2024-04-06T12:16:37.861Z,21.19
2024-04-06T12:19:08.388Z,21.29
2024-04-06T12:21:36.884Z,21.41
2024-04-06T12:24:07.407Z,21.58
2024-04-06T12:26:36.087Z,21.82
2024-04-06T12:29:09.852Z,22.08
2024-04-06T12:31:38.882Z,22.31
2024-04-06T12:34:09.208Z,22.52
2024-04-06T12:36:37.918Z,22.69
2024-04-06T12:39:10.253Z,22.82
2024-04-06T12:41:38.854Z,22.88
2024-04-06T12:44:09.078Z,22.94
2024-04-06T12:46:37.842Z,23.05
2024-04-06T12:49:08.382Z,23.23
2024-04-06T12:51:37.171Z,23.37
2024-04-06T12:54:08.829Z,23.47
2024-04-06T12:56:57.481Z,23.48
2024-04-06T12:59:27.597Z,23.44
2024-04-06T13:01:56.490Z,23.33
2024-04-06T13:04:27.228Z,23.20
2024-04-06T13:06:56.217Z,23.06
2024-04-06T13:09:26.233Z,22.97
2024-04-06T13:11:55.132Z,22.91
2024-04-06T13:14:25.254Z,22.89
2024-04-06T13:16:54.538Z,22.86
2024-04-06T13:19:26.427Z,22.86
2024-04-06T13:21:55.085Z,22.95
2024-04-06T13:24:25.616Z,22.99
2024-04-06T13:26:54.405Z,22.96
2024-04-06T13:29:24.724Z,22.95
2024-04-06T13:31:55.157Z,22.91
2024-04-06T13:34:25.835Z,22.83
2024-04-06T13:36:54.574Z,22.77
2024-04-06T13:39:24.896Z,22.68
2024-04-06T13:41:53.598Z,22.59
2024-04-06T13:44:23.805Z,22.50
2024-04-06T13:46:52.489Z,22.44
2024-04-06T13:49:23.019Z,22.31
2024-04-06T13:51:52.007Z,22.16
2024-04-06T13:54:22.219Z,22.13
2024-04-06T13:56:51.112Z,22.13
2024-04-06T13:59:21.337Z,22.09
2024-04-06T14:01:50.332Z,22.07
2024-04-06T14:04:21.172Z,22.04
2024-04-06T14:06:50.465Z,21.99
2024-04-06T14:09:20.905Z,21.94
2024-04-06T14:11:49.677Z,21.93
2024-04-06T14:14:23.277Z,21.90
2024-04-06T14:16:52.375Z,21.88
2024-04-06T14:19:23.562Z,21.87
2024-04-06T14:21:52.819Z,21.87
2024-04-06T14:24:23.042Z,21.86
2024-04-06T14:26:52.550Z,21.85
2024-04-06T14:29:22.666Z,21.85
2024-04-06T14:31:51.771Z,21.85
2024-04-06T14:34:21.883Z,21.85
2024-04-06T14:36:53.567Z,21.84
2024-04-06T14:39:25.016Z,21.83
2024-04-06T14:41:53.777Z,21.83
2024-04-06T14:44:23.889Z,21.82
2024-04-06T14:46:52.677Z,21.80
2024-04-06T14:49:22.997Z,21.78
2024-04-06T14:51:51.915Z,21.73
2024-04-06T14:54:22.018Z,21.67
2024-04-06T14:56:51.311Z,21.60
2024-04-06T14:59:21.022Z,21.51
2024-04-06T15:01:49.907Z,21.45
2024-04-06T15:04:19.712Z,21.38
2024-04-06T15:06:48.618Z,21.31
2024-04-06T15:09:18.634Z,21.29
2024-04-06T15:11:47.633Z,21.29
2024-04-06T15:14:17.531Z,21.28
2024-04-06T15:16:46.530Z,21.25
2024-04-06T15:19:16.446Z,21.20
2024-04-06T15:21:45.543Z,21.15
2024-04-06T15:24:16.174Z,21.12
2024-04-06T15:26:46.615Z,21.06
2024-04-06T15:29:16.524Z,20.98
2024-04-06T15:31:45.400Z,20.90
2024-04-06T15:34:15.417Z,20.80
2024-04-06T15:36:44.439Z,20.73
2024-04-06T15:39:24.262Z,20.69
2024-04-06T15:41:57.554Z,20.62
2024-04-06T15:44:26.452Z,20.55
2024-04-06T15:46:56.872Z,20.49
2024-04-06T15:49:28.193Z,20.42
2024-04-06T15:51:58.333Z,20.34
2024-04-06T15:54:27.944Z,20.27
2024-04-06T15:56:59.185Z,20.20
2024-04-06T15:59:28.493Z,20.13
2024-04-06T16:01:59.236Z,20.06
2024-04-06T16:04:28.470Z,19.98
2024-04-06T16:06:59.256Z,19.90
2024-04-06T16:09:27.931Z,19.83
2024-04-06T16:11:58.469Z,19.75
2024-04-06T16:14:27.154Z,19.68
2024-04-06T16:16:57.068Z,19.60
2024-04-06T16:19:26.773Z,19.53
2024-04-06T16:21:56.888Z,19.46
2024-04-06T16:24:25.584Z,19.38
2024-04-06T16:26:55.798Z,19.30
2024-04-06T16:29:24.812Z,19.20
2024-04-06T16:31:54.197Z,19.10
2024-04-06T16:34:23.900Z,19.01
2024-04-06T16:36:54.328Z,18.93
2024-04-06T16:39:23.216Z,18.84
2024-04-06T16:41:53.152Z,18.77
2024-04-06T16:44:23.355Z,18.69
2024-04-06T16:46:53.374Z,18.61
2024-04-06T16:49:23.098Z,18.52
2024-04-06T16:51:53.099Z,18.41
2024-04-06T16:54:22.190Z,18.31
2024-04-06T16:56:55.285Z,18.19
2024-04-06T16:59:24.575Z,18.07
2024-04-06T17:01:55.217Z,17.95
2024-04-06T17:04:24.016Z,17.82
2024-04-06T17:06:54.117Z,17.70
2024-04-06T17:09:23.008Z,17.58
2024-04-06T17:11:52.826Z,17.44
2024-04-06T17:14:21.716Z,17.31
2024-04-06T17:16:54.640Z,17.18
2024-04-06T17:19:23.926Z,17.05
2024-04-06T17:21:53.908Z,16.91
2024-04-06T17:24:22.804Z,16.78
2024-04-06T17:26:52.735Z,16.65
2024-04-06T17:29:21.809Z,16.52
2024-04-06T17:31:51.830Z,16.39
2024-04-06T17:34:20.617Z,16.27
2024-04-06T17:36:50.628Z,16.16
2024-04-06T17:39:19.317Z,16.03
2024-04-06T17:41:50.357Z,15.92
2024-04-06T17:44:19.146Z,15.81
2024-04-06T17:46:49.266Z,15.73
2024-04-06T17:49:18.276Z,15.67
2024-04-06T17:51:48.271Z,15.63
2024-04-06T17:54:17.472Z,15.58
2024-04-06T17:56:47.896Z,15.54
2024-04-06T17:59:16.989Z,15.50
2024-04-06T18:01:47.216Z,15.45
2024-04-06T18:04:16.115Z,15.42
2024-04-06T18:06:46.424Z,15.40
2024-04-06T18:09:15.865Z,15.37
2024-04-06T18:11:46.164Z,15.32
2024-04-06T18:14:15.055Z,15.27
2024-04-06T18:16:45.263Z,15.21
2024-04-06T18:19:14.457Z,15.14
2024-04-06T18:21:45.504Z,15.07
2024-04-06T18:24:14.088Z,15.00
2024-04-06T18:26:44.617Z,14.92
2024-04-06T18:29:15.770Z,14.84
2024-04-06T18:31:46.078Z,14.75
2024-04-06T18:34:17.940Z,14.68
2024-04-06T18:36:48.276Z,14.62
2024-04-06T18:39:17.050Z,14.55
2024-04-06T18:41:47.277Z,14.48
2024-04-06T18:44:15.969Z,14.41
2024-04-06T18:46:46.286Z,14.35
2024-04-06T18:49:14.967Z,14.31
2024-04-06T18:51:45.800Z,14.27
2024-04-06T18:54:23.499Z,14.23
2024-04-06T18:56:58.535Z,14.19
2024-04-06T18:59:27.434Z,14.18
2024-04-06T19:01:57.648Z,14.19
2024-04-06T19:04:28.063Z,14.19
2024-04-06T19:06:58.296Z,14.18
2024-04-06T19:09:27.092Z,14.15
2024-04-06T19:11:57.211Z,14.13
2024-04-06T19:14:26.219Z,14.09
2024-04-06T19:16:56.514Z,14.05
2024-04-06T19:19:25.303Z,14.02
2024-04-06T19:21:56.245Z,13.99
2024-04-06T19:24:24.727Z,13.97
2024-04-06T19:26:54.845Z,13.95
2024-04-06T19:29:23.634Z,13.92
2024-04-06T19:31:53.854Z,13.89
2024-04-06T19:34:23.058Z,13.85
2024-04-06T19:36:54.554Z,13.80
2024-04-06T19:39:23.506Z,13.77
2024-04-06T19:41:55.184Z,13.74
2024-04-06T19:44:23.936Z,13.71
2024-04-06T19:46:54.356Z,13.69
2024-04-06T19:49:23.867Z,13.67
2024-04-06T19:51:53.997Z,13.67
2024-04-06T19:54:23.180Z,13.66
2024-04-06T19:56:53.613Z,13.66
2024-04-06T19:59:22.333Z,13.65
2024-04-06T20:01:52.535Z,13.67
2024-04-06T20:04:21.722Z,13.68
2024-04-06T20:06:52.032Z,13.70
2024-04-06T20:09:21.245Z,13.72
2024-04-06T20:11:51.769Z,13.74
2024-04-06T20:14:20.351Z,13.76
2024-04-06T20:16:50.467Z,13.75
2024-04-06T20:19:19.628Z,13.73
2024-04-06T20:22:10.150Z,13.69
2024-04-06T20:24:59.225Z,13.62
2024-04-06T20:27:29.853Z,13.57
2024-04-06T20:29:58.541Z,13.51
2024-04-06T20:32:28.980Z,13.44
2024-04-06T20:34:57.958Z,13.36
2024-04-06T20:37:28.179Z,13.26
2024-04-06T20:39:56.863Z,13.19
2024-04-06T20:42:27.077Z,13.13
2024-04-06T20:44:56.072Z,13.08
2024-04-06T20:47:27.658Z,13.03
2024-04-06T20:49:56.124Z,12.98
2024-04-06T20:52:26.446Z,12.95
2024-04-06T20:54:55.326Z,12.91
2024-04-06T20:57:25.541Z,12.86
2024-04-06T20:59:54.335Z,12.82
2024-04-06T21:02:24.758Z,12.79
2024-04-06T21:04:53.448Z,12.77
2024-04-06T21:07:23.558Z,12.76
2024-04-06T21:09:52.964Z,12.78
2024-04-06T21:12:23.077Z,12.80
2024-04-06T21:14:52.283Z,12.79
2024-04-06T21:17:22.506Z,12.76
2024-04-06T21:19:50.982Z,12.75
2024-04-06T21:22:21.210Z,12.76
2024-04-06T21:24:50.093Z,12.79
2024-04-06T21:27:20.105Z,12.81
2024-04-06T21:29:52.748Z,12.79
2024-04-06T21:32:23.412Z,12.80
2024-04-06T21:34:52.211Z,12.83
2024-04-06T21:37:22.551Z,12.87
2024-04-06T21:39:53.074Z,12.85
2024-04-06T21:42:23.387Z,12.77
2024-04-06T21:44:52.269Z,12.72
2024-04-06T21:47:23.020Z,12.67
2024-04-06T21:49:52.118Z,12.63
2024-04-06T21:52:22.624Z,12.58
2024-04-06T21:54:51.312Z,12.53
2024-04-06T21:57:21.428Z,12.47
2024-04-06T21:59:51.045Z,12.41
2024-04-06T22:02:21.266Z,12.35
2024-04-06T22:04:50.254Z,12.28
2024-04-06T22:07:20.790Z,12.19
2024-04-06T22:09:49.689Z,12.10
2024-04-06T22:12:19.897Z,12.03
2024-04-06T22:14:48.485Z,11.99
2024-04-06T22:17:18.391Z,11.96
2024-04-06T22:19:47.399Z,11.95
2024-04-06T22:22:17.415Z,11.94
2024-04-06T22:24:46.598Z,11.92
2024-04-06T22:27:16.512Z,11.97
2024-04-06T22:29:47.860Z,12.02
2024-04-06T22:32:18.299Z,12.10
2024-04-06T22:34:47.078Z,12.18
2024-04-06T22:37:17.611Z,12.25
2024-04-06T22:39:46.095Z,12.33
2024-04-06T22:42:16.196Z,12.40
2024-04-06T22:44:45.211Z,12.47
2024-04-06T22:47:15.107Z,12.51
2024-04-06T22:49:44.118Z,12.53
2024-04-06T22:52:14.115Z,12.50
2024-04-06T22:54:43.411Z,12.47
2024-04-06T22:57:13.144Z,12.45
2024-04-06T22:59:42.228Z,12.43
2024-04-06T23:02:12.246Z,12.41
2024-04-06T23:04:41.594Z,12.39
2024-04-06T23:07:11.888Z,12.36
2024-04-06T23:09:41.884Z,12.32
2024-04-06T23:12:12.407Z,12.28
2024-04-06T23:14:41.203Z,12.22
2024-04-06T23:17:11.527Z,12.16
2024-04-06T23:19:40.532Z,12.10
2024-04-06T23:22:10.975Z,12.04
2024-04-06T23:24:40.144Z,11.99
2024-04-06T23:27:13.843Z,11.94
2024-04-06T23:29:42.829Z,11.89
2024-04-06T23:32:12.956Z,11.87
2024-04-06T23:34:42.099Z,11.87
2024-04-06T23:37:12.571Z,11.90
2024-04-06T23:39:41.466Z,11.91
2024-04-06T23:42:13.538Z,11.93
2024-04-06T23:44:43.586Z,11.95
2024-04-06T23:47:13.571Z,11.98
2024-04-06T23:49:42.907Z,12.01
2024-04-06T23:52:13.298Z,12.02
2024-04-06T23:54:42.172Z,11.99
2024-04-06T23:57:12.520Z,11.98
2024-04-06T23:59:41.708Z,11.99
